PWSweather.com
Personal Weather Stations
Station Observations
KCAOCEAN4
Jeffries Ranch, Oceanside, CA 92057

Jeffries RanchOceanside, CA 92057

Lat: 33.24433789, Lon: -117.25337219

Elevation: 207

Station Type: Davis Vantage Vue

jeffriesranchweather.com

High Low Average
Temperature 81.1°F27.3°F 44.4°F6.9°F 57.9°F14.4°F
Dew Point 38.1°F3.4°F 14.0°F-10.0°F 23.1°F-4.9°F
Winds 6.9 mph E11.1 mph E Calm Calm 2.4 mph 3.9 mph
Wind Gusts 12.1 mph19.5 mph -- 5.4 mph8.7 mph
Humidity 48% 8% 29%
Pressure 30.00 in1015.90 in 29.89 in1012.20 in -
Precipitation 0.00 in0.00 in - -
Hour Temp Dew Point Humidity Winds Wind Gusts Pressure Precip Precip Rate Daily Precip Total
12:06 AM 48.7°F9.3°C 22.3°F-5.4°C 35% 6.0 mph ENE9.7 kmh ENE 10.1 mph16.3 kmh 29.98 in1015.2 mb 0.00 in0.0 mm 0.00 in0.0 mm 0.00 in0.0 mm
12:16 AM 48.7°F9.3°C 21.6°F-5.8°C 34% 4.0 mph NE6.4 kmh NE 8.1 mph13.0 kmh 29.98 in1015.2 mb 0.00 in0.0 mm 0.00 in0.0 mm 0.00 in0.0 mm
12:26 AM 48.9°F9.4°C 21.0°F-6.1°C 33% 4.0 mph ENE6.4 kmh ENE 8.9 mph14.3 kmh 29.98 in1015.2 mb 0.00 in0.0 mm 0.00 in0.0 mm 0.00 in0.0 mm
12:36 AM 48.7°F9.3°C 20.8°F-6.2°C 33% 2.9 mph E4.7 kmh E 6.9 mph11.1 kmh 29.98 in1015.2 mb 0.00 in0.0 mm 0.00 in0.0 mm 0.00 in0.0 mm
12:46 AM 48.9°F9.4°C 20.3°F-6.5°C 32% 4.0 mph NE6.4 kmh NE 8.1 mph13.0 kmh 29.98 in1015.2 mb 0.00 in0.0 mm 0.00 in0.0 mm 0.00 in0.0 mm
12:56 AM 48.4°F9.1°C 20.7°F-6.3°C 33% 4.0 mph E6.4 kmh E 6.9 mph11.1 kmh 29.98 in1015.2 mb 0.00 in0.0 mm 0.00 in0.0 mm 0.00 in0.0 mm
01:06 AM 48.4°F9.1°C 19.9°F-6.7°C 32% 4.9 mph ENE7.9 kmh ENE 8.9 mph14.3 kmh 29.98 in1015.2 mb 0.00 in0.0 mm 0.00 in0.0 mm 0.00 in0.0 mm
01:16 AM 49.1°F9.5°C 19.8°F-6.8°C 31% 4.9 mph ENE7.9 kmh ENE 10.1 mph16.3 kmh 29.98 in1015.2 mb 0.00 in0.0 mm 0.00 in0.0 mm 0.00 in0.0 mm
01:26 AM 47.8°F8.8°C 20.1°F-6.6°C 33% 4.0 mph NE6.4 kmh NE 8.1 mph13.0 kmh 29.98 in1015.2 mb 0.00 in0.0 mm 0.00 in0.0 mm 0.00 in0.0 mm
01:36 AM 47.5°F8.6°C 19.8°F-6.8°C 33% 4.0 mph NE6.4 kmh NE 8.9 mph14.3 kmh 29.98 in1015.2 mb 0.00 in0.0 mm 0.00 in0.0 mm 0.00 in0.0 mm
01:46 AM 47.3°F8.5°C 19.6°F-6.9°C 33% 4.9 mph NE7.9 kmh NE 10.1 mph16.3 kmh 29.98 in1015.2 mb 0.00 in0.0 mm 0.00 in0.0 mm 0.00 in0.0 mm
01:56 AM 46.9°F8.3°C 19.9°F-6.7°C 34% 4.9 mph E7.9 kmh E 11.0 mph17.7 kmh 29.98 in1015.2 mb 0.00 in0.0 mm 0.00 in0.0 mm 0.00 in0.0 mm
02:06 AM 47.5°F8.6°C 19.0°F-7.2°C 32% 4.9 mph E7.9 kmh E 8.9 mph14.3 kmh 29.98 in1015.2 mb 0.00 in0.0 mm 0.00 in0.0 mm 0.00 in0.0 mm
02:16 AM 47.5°F8.6°C 19.0°F-7.2°C 32% 4.0 mph NE6.4 kmh NE 6.9 mph11.1 kmh 29.98 in1015.2 mb 0.00 in0.0 mm 0.00 in0.0 mm 0.00 in0.0 mm
02:26 AM 46.6°F8.1°C 19.0°F-7.2°C 33% 4.9 mph E7.9 kmh E 9.0 mph14.5 kmh 29.97 in1014.9 mb 0.00 in0.0 mm 0.00 in0.0 mm 0.00 in0.0 mm
02:36 AM 47.1°F8.4°C 18.7°F-7.4°C 32% 6.0 mph ENE9.7 kmh ENE 8.9 mph14.3 kmh 29.97 in1014.9 mb 0.00 in0.0 mm 0.00 in0.0 mm 0.00 in0.0 mm
02:46 AM 47.1°F8.4°C 18.7°F-7.4°C 32% 4.9 mph NE7.9 kmh NE 12.1 mph19.5 kmh 29.97 in1014.9 mb 0.00 in0.0 mm 0.00 in0.0 mm 0.00 in0.0 mm
02:56 AM 46.6°F8.1°C 18.3°F-7.6°C 32% 4.9 mph ENE7.9 kmh ENE 8.1 mph13.0 kmh 29.97 in1014.9 mb 0.00 in0.0 mm 0.00 in0.0 mm 0.00 in0.0 mm
03:06 AM 47.3°F8.5°C 17.4°F-8.1°C 30% 6.0 mph ENE9.7 kmh ENE 10.1 mph16.3 kmh 29.97 in1014.9 mb 0.00 in0.0 mm 0.00 in0.0 mm 0.00 in0.0 mm
03:16 AM 47.5°F8.6°C 17.6°F-8.0°C 30% 6.0 mph E9.7 kmh E 11.0 mph17.7 kmh 29.97 in1014.9 mb 0.00 in0.0 mm 0.00 in0.0 mm 0.00 in0.0 mm
03:26 AM 47.8°F8.8°C 17.1°F-8.3°C 29% 6.0 mph ENE9.7 kmh ENE 11.0 mph17.7 kmh 29.96 in1014.6 mb 0.00 in0.0 mm 0.00 in0.0 mm 0.00 in0.0 mm
03:36 AM 47.7°F8.7°C 17.8°F-7.9°C 30% 6.9 mph E11.1 kmh E 10.1 mph16.3 kmh 29.96 in1014.6 mb 0.00 in0.0 mm 0.00 in0.0 mm 0.00 in0.0 mm
03:47 AM 47.1°F8.4°C 17.2°F-8.2°C 30% 6.0 mph ENE9.7 kmh ENE 10.1 mph16.3 kmh 29.96 in1014.6 mb 0.00 in0.0 mm 0.00 in0.0 mm 0.00 in0.0 mm
03:57 AM 46.9°F8.3°C 17.1°F-8.3°C 30% 4.0 mph ENE6.4 kmh ENE 6.9 mph11.1 kmh 29.96 in1014.6 mb 0.00 in0.0 mm 0.00 in0.0 mm 0.00 in0.0 mm
04:07 AM 46.6°F8.1°C 17.6°F-8.0°C 31% 2.0 mph NE3.2 kmh NE 6.0 mph9.7 kmh 29.96 in1014.6 mb 0.00 in0.0 mm 0.00 in0.0 mm 0.00 in0.0 mm
04:17 AM 46.6°F8.1°C 17.6°F-8.0°C 31% 2.9 mph ENE4.7 kmh ENE 6.0 mph9.7 kmh 29.96 in1014.6 mb 0.00 in0.0 mm 0.00 in0.0 mm 0.00 in0.0 mm
04:27 AM 46.6°F8.1°C 17.6°F-8.0°C 31% 4.0 mph ENE6.4 kmh ENE 8.1 mph13.0 kmh 29.96 in1014.6 mb 0.00 in0.0 mm 0.00 in0.0 mm 0.00 in0.0 mm
04:37 AM 46.9°F8.3°C 17.1°F-8.3°C 30% 6.0 mph ENE9.7 kmh ENE 11.0 mph17.7 kmh 29.95 in1014.2 mb 0.00 in0.0 mm 0.00 in0.0 mm 0.00 in0.0 mm
04:47 AM 46.8°F8.2°C 16.9°F-8.4°C 30% 4.0 mph ENE6.4 kmh ENE 8.1 mph13.0 kmh 29.96 in1014.6 mb 0.00 in0.0 mm 0.00 in0.0 mm 0.00 in0.0 mm
04:57 AM 46.2°F7.9°C 17.2°F-8.2°C 31% 2.9 mph ENE4.7 kmh ENE 8.1 mph13.0 kmh 29.96 in1014.6 mb 0.00 in0.0 mm 0.00 in0.0 mm 0.00 in0.0 mm
05:07 AM 46.2°F7.9°C 17.2°F-8.2°C 31% 6.0 mph NE9.7 kmh NE 10.1 mph16.3 kmh 29.96 in1014.6 mb 0.00 in0.0 mm 0.00 in0.0 mm 0.00 in0.0 mm
05:17 AM 46.8°F8.2°C 16.9°F-8.4°C 30% 6.0 mph ENE9.7 kmh ENE 11.0 mph17.7 kmh 29.96 in1014.6 mb 0.00 in0.0 mm 0.00 in0.0 mm 0.00 in0.0 mm
05:27 AM 46.8°F8.2°C 16.9°F-8.4°C 30% 4.0 mph NE6.4 kmh NE 8.1 mph13.0 kmh 29.96 in1014.6 mb 0.00 in0.0 mm 0.00 in0.0 mm 0.00 in0.0 mm
05:37 AM 46.6°F8.1°C 16.9°F-8.4°C 30% 2.9 mph ENE4.7 kmh ENE 4.9 mph7.9 kmh 29.96 in1014.6 mb 0.00 in0.0 mm 0.00 in0.0 mm 0.00 in0.0 mm
05:47 AM 46.8°F8.2°C 16.9°F-8.4°C 30% 2.0 mph ENE3.2 kmh ENE 6.0 mph9.7 kmh 29.96 in1014.6 mb 0.00 in0.0 mm 0.00 in0.0 mm 0.00 in0.0 mm
05:57 AM 46.6°F8.1°C 17.6°F-8.0°C 31% 4.0 mph NE6.4 kmh NE 8.1 mph13.0 kmh 29.97 in1014.9 mb 0.00 in0.0 mm 0.00 in0.0 mm 0.00 in0.0 mm
06:07 AM 46.2°F7.9°C 17.2°F-8.2°C 31% 4.9 mph E7.9 kmh E 9.0 mph14.5 kmh 29.97 in1014.9 mb 0.00 in0.0 mm 0.00 in0.0 mm 0.00 in0.0 mm
06:17 AM 46.2°F7.9°C 17.2°F-8.2°C 31% 4.0 mph E6.4 kmh E 8.9 mph14.3 kmh 29.97 in1014.9 mb 0.00 in0.0 mm 0.00 in0.0 mm 0.00 in0.0 mm
06:27 AM 46.4°F8.0°C 17.4°F-8.1°C 31% 2.9 mph ENE4.7 kmh ENE 10.1 mph16.3 kmh 29.98 in1015.2 mb 0.00 in0.0 mm 0.00 in0.0 mm 0.00 in0.0 mm
06:37 AM 46.0°F7.8°C 17.1°F-8.3°C 31% 2.9 mph ESE4.7 kmh ESE 6.9 mph11.1 kmh 29.98 in1015.2 mb 0.00 in0.0 mm 0.00 in0.0 mm 0.00 in0.0 mm
06:47 AM 45.3°F7.4°C 18.0°F-7.8°C 33% 0.9 mph E1.4 kmh E 2.9 mph4.7 kmh 29.98 in1015.2 mb 0.00 in0.0 mm 0.00 in0.0 mm 0.00 in0.0 mm
06:57 AM 44.4°F6.9°C 18.5°F-7.5°C 35% Calm Calm -- 29.99 in1015.6 mb 0.00 in0.0 mm 0.00 in0.0 mm 0.00 in0.0 mm
07:07 AM 44.4°F6.9°C 17.8°F-7.9°C 34% 0.9 mph ENE1.4 kmh ENE 4.9 mph7.9 kmh 29.99 in1015.6 mb 0.00 in0.0 mm 0.00 in0.0 mm 0.00 in0.0 mm
07:17 AM 45.3°F7.4°C 18.0°F-7.8°C 33% 2.0 mph ESE3.2 kmh ESE 4.9 mph7.9 kmh 29.99 in1015.6 mb 0.00 in0.0 mm 0.00 in0.0 mm 0.00 in0.0 mm
07:27 AM 46.4°F8.0°C 18.1°F-7.7°C 32% 0.9 mph NE1.4 kmh NE 4.0 mph6.4 kmh 29.99 in1015.6 mb 0.00 in0.0 mm 0.00 in0.0 mm 0.00 in0.0 mm
07:37 AM 47.5°F8.6°C 18.3°F-7.6°C 31% 2.0 mph E3.2 kmh E 6.9 mph11.1 kmh 29.99 in1015.6 mb 0.00 in0.0 mm 0.00 in0.0 mm 0.00 in0.0 mm
07:47 AM 48.0°F8.9°C 18.1°F-7.7°C 30% 2.9 mph E4.7 kmh E 6.0 mph9.7 kmh 29.99 in1015.6 mb 0.00 in0.0 mm 0.00 in0.0 mm 0.00 in0.0 mm
07:57 AM 49.3°F9.6°C 19.2°F-7.1°C 30% 2.0 mph ENE3.2 kmh ENE 4.0 mph6.4 kmh 30.00 in1015.9 mb 0.00 in0.0 mm 0.00 in0.0 mm 0.00 in0.0 mm
08:07 AM 50.9°F10.5°C 19.8°F-6.8°C 29% 2.0 mph ENE3.2 kmh ENE 4.9 mph7.9 kmh 30.00 in1015.9 mb 0.00 in0.0 mm 0.00 in0.0 mm 0.00 in0.0 mm
08:17 AM 52.5°F11.4°C 21.2°F-6.0°C 29% 2.0 mph SE3.2 kmh SE 4.9 mph7.9 kmh 30.00 in1015.9 mb 0.00 in0.0 mm 0.00 in0.0 mm 0.00 in0.0 mm
08:27 AM 54.0°F12.2°C 19.8°F-6.8°C 26% 2.0 mph ENE3.2 kmh ENE 6.0 mph9.7 kmh 30.00 in1015.9 mb 0.00 in0.0 mm 0.00 in0.0 mm 0.00 in0.0 mm
08:37 AM 55.0°F12.8°C 20.8°F-6.2°C 26% 2.0 mph NE3.2 kmh NE 6.0 mph9.7 kmh 30.00 in1015.9 mb 0.00 in0.0 mm 0.00 in0.0 mm 0.00 in0.0 mm
08:47 AM 56.3°F13.5°C 21.9°F-5.6°C 26% 0.9 mph NE1.4 kmh NE 4.0 mph6.4 kmh 30.00 in1015.9 mb 0.00 in0.0 mm 0.00 in0.0 mm 0.00 in0.0 mm
08:57 AM 58.5°F14.7°C 22.8°F-5.1°C 25% 0.9 mph ENE1.4 kmh ENE 2.9 mph4.7 kmh 30.00 in1015.9 mb 0.00 in0.0 mm 0.00 in0.0 mm 0.00 in0.0 mm
09:07 AM 59.7°F15.4°C 21.9°F-5.6°C 23% 2.0 mph NE3.2 kmh NE 5.0 mph8.0 kmh 30.00 in1015.9 mb 0.00 in0.0 mm 0.00 in0.0 mm 0.00 in0.0 mm
09:17 AM 61.3°F16.3°C 23.2°F-4.9°C 23% 2.0 mph NE3.2 kmh NE 4.0 mph6.4 kmh 30.00 in1015.9 mb 0.00 in0.0 mm 0.00 in0.0 mm 0.00 in0.0 mm
09:27 AM 62.6°F17.0°C 22.1°F-5.5°C 21% 2.9 mph E4.7 kmh E 5.0 mph8.0 kmh 30.00 in1015.9 mb 0.00 in0.0 mm 0.00 in0.0 mm 0.00 in0.0 mm
09:37 AM 64.0°F17.8°C 23.4°F-4.8°C 21% 2.0 mph ESE3.2 kmh ESE 4.9 mph7.9 kmh 30.00 in1015.9 mb 0.00 in0.0 mm 0.00 in0.0 mm 0.00 in0.0 mm
09:47 AM 65.8°F18.8°C 22.5°F-5.3°C 19% 0.9 mph E1.4 kmh E 2.9 mph4.7 kmh 29.99 in1015.6 mb 0.00 in0.0 mm 0.00 in0.0 mm 0.00 in0.0 mm
09:57 AM 67.3°F19.6°C 22.3°F-5.4°C 18% 2.0 mph NE3.2 kmh NE 5.0 mph8.0 kmh 29.99 in1015.6 mb 0.00 in0.0 mm 0.00 in0.0 mm 0.00 in0.0 mm
10:07 AM 68.7°F20.4°C 22.1°F-5.5°C 17% 2.0 mph N3.2 kmh N 4.9 mph7.9 kmh 29.99 in1015.6 mb 0.00 in0.0 mm 0.00 in0.0 mm 0.00 in0.0 mm
10:17 AM 70.3°F21.3°C 22.1°F-5.5°C 16% 2.9 mph NE4.7 kmh NE 4.9 mph7.9 kmh 29.99 in1015.6 mb 0.00 in0.0 mm 0.00 in0.0 mm 0.00 in0.0 mm
10:27 AM 72.1°F22.3°C 21.9°F-5.6°C 15% 2.9 mph NE4.7 kmh NE 6.0 mph9.7 kmh 29.98 in1015.2 mb 0.00 in0.0 mm 0.00 in0.0 mm 0.00 in0.0 mm
10:37 AM 73.4°F23.0°C 21.4°F-5.9°C 14% 2.0 mph NE3.2 kmh NE 4.9 mph7.9 kmh 29.98 in1015.2 mb 0.00 in0.0 mm 0.00 in0.0 mm 0.00 in0.0 mm
10:47 AM 74.8°F23.8°C 20.7°F-6.3°C 13% 2.0 mph NE3.2 kmh NE 2.9 mph4.7 kmh 29.97 in1014.9 mb 0.00 in0.0 mm 0.00 in0.0 mm 0.00 in0.0 mm
10:57 AM 76.5°F24.7°C 21.9°F-5.6°C 13% Calm Calm 2.0 mph3.2 kmh 29.97 in1014.9 mb 0.00 in0.0 mm 0.00 in0.0 mm 0.00 in0.0 mm
11:07 AM 77.2°F25.1°C 16.3°F-8.7°C 10% Calm Calm 2.0 mph3.2 kmh 29.96 in1014.6 mb 0.00 in0.0 mm 0.00 in0.0 mm 0.00 in0.0 mm
11:17 AM 78.4°F25.8°C 17.4°F-8.1°C 10% Calm Calm 0.9 mph1.4 kmh 29.95 in1014.2 mb 0.00 in0.0 mm 0.00 in0.0 mm 0.00 in0.0 mm
11:27 AM 79.2°F26.2°C 15.4°F-9.2°C 9% Calm Calm -- 29.95 in1014.2 mb 0.00 in0.0 mm 0.00 in0.0 mm 0.00 in0.0 mm
11:37 AM 79.7°F26.5°C 15.8°F-9.0°C 9% 0.9 mph NE1.4 kmh NE 2.9 mph4.7 kmh 29.94 in1013.9 mb 0.00 in0.0 mm 0.00 in0.0 mm 0.00 in0.0 mm
11:47 AM 80.8°F27.1°C 19.2°F-7.1°C 10% Calm Calm 2.0 mph3.2 kmh 29.93 in1013.5 mb 0.00 in0.0 mm 0.00 in0.0 mm 0.00 in0.0 mm
11:57 AM 81.0°F27.2°C 16.9°F-8.4°C 9% Calm Calm 0.9 mph1.4 kmh 29.92 in1013.2 mb 0.00 in0.0 mm 0.00 in0.0 mm 0.00 in0.0 mm
12:07 PM 80.8°F27.1°C 14.0°F-10.0°C 8% 2.0 mph W3.2 kmh W 6.0 mph9.7 kmh 29.92 in1013.2 mb 0.00 in0.0 mm 0.00 in0.0 mm 0.00 in0.0 mm
12:17 PM 81.1°F27.3°C 16.9°F-8.4°C 9% 0.9 mph WNW1.4 kmh WNW 6.0 mph9.7 kmh 29.91 in1012.9 mb 0.00 in0.0 mm 0.00 in0.0 mm 0.00 in0.0 mm
12:27 PM 80.8°F27.1°C 19.2°F-7.1°C 10% 2.9 mph WSW4.7 kmh WSW 7.0 mph11.3 kmh 29.91 in1012.9 mb 0.00 in0.0 mm 0.00 in0.0 mm 0.00 in0.0 mm
12:37 PM 80.4°F26.9°C 25.2°F-3.8°C 13% 2.9 mph W4.7 kmh W 9.0 mph14.5 kmh 29.90 in1012.5 mb 0.00 in0.0 mm 0.00 in0.0 mm 0.00 in0.0 mm
12:47 PM 79.9°F26.6°C 26.4°F-3.1°C 14% 4.9 mph WNW7.9 kmh WNW 8.9 mph14.3 kmh 29.90 in1012.5 mb 0.00 in0.0 mm 0.00 in0.0 mm 0.00 in0.0 mm
12:57 PM 79.3°F26.3°C 26.1°F-3.3°C 14% 4.9 mph WSW7.9 kmh WSW 8.9 mph14.3 kmh 29.90 in1012.5 mb 0.00 in0.0 mm 0.00 in0.0 mm 0.00 in0.0 mm
01:07 PM 79.0°F26.1°C 23.9°F-4.5°C 13% 4.9 mph SSW7.9 kmh SSW 10.1 mph16.3 kmh 29.90 in1012.5 mb 0.00 in0.0 mm 0.00 in0.0 mm 0.00 in0.0 mm
01:17 PM 78.4°F25.8°C 23.5°F-4.7°C 13% 4.9 mph W7.9 kmh W 8.9 mph14.3 kmh 29.90 in1012.5 mb 0.00 in0.0 mm 0.00 in0.0 mm 0.00 in0.0 mm
01:27 PM 78.4°F25.8°C 25.3°F-3.7°C 14% 4.0 mph W6.4 kmh W 8.1 mph13.0 kmh 29.90 in1012.5 mb 0.00 in0.0 mm 0.00 in0.0 mm 0.00 in0.0 mm
01:37 PM 77.5°F25.3°C 22.8°F-5.1°C 13% 4.9 mph W7.9 kmh W 8.1 mph13.0 kmh 29.90 in1012.5 mb 0.00 in0.0 mm 0.00 in0.0 mm 0.00 in0.0 mm
01:47 PM 77.4°F25.2°C 20.8°F-6.2°C 12% 4.9 mph W7.9 kmh W 8.1 mph13.0 kmh 29.90 in1012.5 mb 0.00 in0.0 mm 0.00 in0.0 mm 0.00 in0.0 mm
01:57 PM 76.6°F24.8°C 22.1°F-5.5°C 13% 4.0 mph WNW6.4 kmh WNW 8.1 mph13.0 kmh 29.90 in1012.5 mb 0.00 in0.0 mm 0.00 in0.0 mm 0.00 in0.0 mm
02:07 PM 76.5°F24.7°C 21.9°F-5.6°C 13% 4.0 mph WNW6.4 kmh WNW 9.0 mph14.5 kmh 29.90 in1012.5 mb 0.00 in0.0 mm 0.00 in0.0 mm 0.00 in0.0 mm
02:17 PM 76.6°F24.8°C 27.1°F-2.7°C 16% 4.0 mph W6.4 kmh W 6.9 mph11.1 kmh 29.90 in1012.5 mb 0.00 in0.0 mm 0.00 in0.0 mm 0.00 in0.0 mm
02:27 PM 75.9°F24.4°C 28.0°F-2.2°C 17% 4.0 mph WSW6.4 kmh WSW 8.1 mph13.0 kmh 29.90 in1012.5 mb 0.00 in0.0 mm 0.00 in0.0 mm 0.00 in0.0 mm
02:37 PM 76.5°F24.7°C 21.9°F-5.6°C 13% 2.9 mph SW4.7 kmh SW 8.1 mph13.0 kmh 29.89 in1012.2 mb 0.00 in0.0 mm 0.00 in0.0 mm 0.00 in0.0 mm
02:47 PM 77.2°F25.1°C 20.7°F-6.3°C 12% 2.0 mph SW3.2 kmh SW 6.0 mph9.7 kmh 29.89 in1012.2 mb 0.00 in0.0 mm 0.00 in0.0 mm 0.00 in0.0 mm
02:57 PM 77.5°F25.3°C 20.8°F-6.2°C 12% 0.9 mph SW1.4 kmh SW 4.0 mph6.4 kmh 29.89 in1012.2 mb 0.00 in0.0 mm 0.00 in0.0 mm 0.00 in0.0 mm
03:07 PM 77.5°F25.3°C 22.8°F-5.1°C 13% 2.0 mph W3.2 kmh W 5.0 mph8.0 kmh 29.89 in1012.2 mb 0.00 in0.0 mm 0.00 in0.0 mm 0.00 in0.0 mm
03:17 PM 77.2°F25.1°C 25.9°F-3.4°C 15% 2.0 mph WNW3.2 kmh WNW 6.0 mph9.7 kmh 29.89 in1012.2 mb 0.00 in0.0 mm 0.00 in0.0 mm 0.00 in0.0 mm
03:27 PM 76.3°F24.6°C 33.4°F0.8°C 21% 2.9 mph WNW4.7 kmh WNW 6.0 mph9.7 kmh 29.89 in1012.2 mb 0.00 in0.0 mm 0.00 in0.0 mm 0.00 in0.0 mm
03:37 PM 74.8°F23.8°C 33.4°F0.8°C 22% 4.0 mph WNW6.4 kmh WNW 6.9 mph11.1 kmh 29.89 in1012.2 mb 0.00 in0.0 mm 0.00 in0.0 mm 0.00 in0.0 mm
03:47 PM 74.1°F23.4°C 35.1°F1.7°C 24% 2.0 mph W3.2 kmh W 2.9 mph4.7 kmh 29.89 in1012.2 mb 0.00 in0.0 mm 0.00 in0.0 mm 0.00 in0.0 mm
03:57 PM 73.4°F23.0°C 34.3°F1.3°C 24% 2.0 mph W3.2 kmh W 4.9 mph7.9 kmh 29.89 in1012.2 mb 0.00 in0.0 mm 0.00 in0.0 mm 0.00 in0.0 mm
04:07 PM 73.9°F23.3°C 36.0°F2.2°C 25% Calm Calm 2.0 mph3.2 kmh 29.89 in1012.2 mb 0.00 in0.0 mm 0.00 in0.0 mm 0.00 in0.0 mm
04:17 PM 74.5°F23.6°C 35.2°F1.8°C 24% Calm Calm 0.9 mph1.4 kmh 29.89 in1012.2 mb 0.00 in0.0 mm 0.00 in0.0 mm 0.00 in0.0 mm
04:27 PM 74.1°F23.4°C 31.6°F-0.2°C 21% Calm Calm -- 29.89 in1012.2 mb 0.00 in0.0 mm 0.00 in0.0 mm 0.00 in0.0 mm
04:37 PM 71.2°F21.8°C 33.6°F0.9°C 25% Calm Calm 3.0 mph4.8 kmh 29.89 in1012.2 mb 0.00 in0.0 mm 0.00 in0.0 mm 0.00 in0.0 mm
04:47 PM 68.5°F20.3°C 32.4°F0.2°C 26% 0.9 mph SSE1.4 kmh SSE 3.0 mph4.8 kmh 29.89 in1012.2 mb 0.00 in0.0 mm 0.00 in0.0 mm 0.00 in0.0 mm
04:57 PM 66.0°F18.9°C 33.6°F0.9°C 30% Calm Calm -- 29.89 in1012.2 mb 0.00 in0.0 mm 0.00 in0.0 mm 0.00 in0.0 mm
05:07 PM 64.2°F17.9°C 33.8°F1.0°C 32% Calm Calm 0.9 mph1.4 kmh 29.89 in1012.2 mb 0.00 in0.0 mm 0.00 in0.0 mm 0.00 in0.0 mm
05:17 PM 61.5°F16.4°C 35.6°F2.0°C 38% 0.9 mph SE1.4 kmh SE 2.0 mph3.2 kmh 29.89 in1012.2 mb 0.00 in0.0 mm 0.00 in0.0 mm 0.00 in0.0 mm
05:27 PM 60.6°F15.9°C 36.1°F2.3°C 40% 0.9 mph SE1.4 kmh SE 2.0 mph3.2 kmh 29.89 in1012.2 mb 0.00 in0.0 mm 0.00 in0.0 mm 0.00 in0.0 mm
05:37 PM 60.1°F15.6°C 37.6°F3.1°C 43% Calm Calm 0.9 mph1.4 kmh 29.90 in1012.5 mb 0.00 in0.0 mm 0.00 in0.0 mm 0.00 in0.0 mm
05:47 PM 60.1°F15.6°C 38.1°F3.4°C 44% Calm Calm 1.0 mph1.6 kmh 29.90 in1012.5 mb 0.00 in0.0 mm 0.00 in0.0 mm 0.00 in0.0 mm
05:57 PM 58.5°F14.7°C 37.8°F3.2°C 46% Calm Calm -- 29.91 in1012.9 mb 0.00 in0.0 mm 0.00 in0.0 mm 0.00 in0.0 mm
06:07 PM 57.2°F14.0°C 37.2°F2.9°C 47% Calm Calm -- 29.91 in1012.9 mb 0.00 in0.0 mm 0.00 in0.0 mm 0.00 in0.0 mm
06:17 PM 56.1°F13.4°C 36.7°F2.6°C 48% Calm Calm -- 29.91 in1012.9 mb 0.00 in0.0 mm 0.00 in0.0 mm 0.00 in0.0 mm
06:27 PM 55.8°F13.2°C 36.3°F2.4°C 48% Calm Calm -- 29.91 in1012.9 mb 0.00 in0.0 mm 0.00 in0.0 mm 0.00 in0.0 mm
06:37 PM 55.0°F12.8°C 35.2°F1.8°C 47% Calm Calm -- 29.91 in1012.9 mb 0.00 in0.0 mm 0.00 in0.0 mm 0.00 in0.0 mm
06:57 PM 53.8°F12.1°C 32.4°F0.2°C 44% Calm Calm 2.0 mph3.2 kmh 29.92 in1013.2 mb 0.00 in0.0 mm 0.00 in0.0 mm 0.00 in0.0 mm
07:07 PM 52.5°F11.4°C 33.4°F0.8°C 48% Calm Calm 0.9 mph1.4 kmh 29.93 in1013.5 mb 0.00 in0.0 mm 0.00 in0.0 mm 0.00 in0.0 mm
07:17 PM 52.7°F11.5°C 29.7°F-1.3°C 41% Calm Calm 2.0 mph3.2 kmh 29.93 in1013.5 mb 0.00 in0.0 mm 0.00 in0.0 mm 0.00 in0.0 mm
07:27 PM 52.7°F11.5°C 29.1°F-1.6°C 40% Calm Calm 0.9 mph1.4 kmh 29.92 in1013.2 mb 0.00 in0.0 mm 0.00 in0.0 mm 0.00 in0.0 mm
07:37 PM 50.9°F10.5°C 31.5°F-0.3°C 47% 0.9 mph SE1.4 kmh SE 2.0 mph3.2 kmh 29.91 in1012.9 mb 0.00 in0.0 mm 0.00 in0.0 mm 0.00 in0.0 mm
07:47 PM 50.9°F10.5°C 30.9°F-0.6°C 46% Calm Calm 0.9 mph1.4 kmh 29.92 in1013.2 mb 0.00 in0.0 mm 0.00 in0.0 mm 0.00 in0.0 mm
07:57 PM 50.4°F10.2°C 26.4°F-3.1°C 39% 0.9 mph E1.4 kmh E 2.9 mph4.7 kmh 29.92 in1013.2 mb 0.00 in0.0 mm 0.00 in0.0 mm 0.00 in0.0 mm
08:07 PM 51.4°F10.8°C 24.6°F-4.1°C 35% 0.9 mph ENE1.4 kmh ENE 5.0 mph8.0 kmh 29.92 in1013.2 mb 0.00 in0.0 mm 0.00 in0.0 mm 0.00 in0.0 mm
08:17 PM 52.0°F11.1°C 23.7°F-4.6°C 33% 2.0 mph ENE3.2 kmh ENE 4.9 mph7.9 kmh 29.93 in1013.5 mb 0.00 in0.0 mm 0.00 in0.0 mm 0.00 in0.0 mm
08:27 PM 52.0°F11.1°C 24.4°F-4.2°C 34% 2.9 mph E4.7 kmh E 6.0 mph9.7 kmh 29.93 in1013.5 mb 0.00 in0.0 mm 0.00 in0.0 mm 0.00 in0.0 mm
08:37 PM 52.0°F11.1°C 25.2°F-3.8°C 35% 0.9 mph ESE1.4 kmh ESE 4.0 mph6.4 kmh 29.92 in1013.2 mb 0.00 in0.0 mm 0.00 in0.0 mm 0.00 in0.0 mm
08:47 PM 50.9°F10.5°C 25.5°F-3.6°C 37% Calm Calm 0.9 mph1.4 kmh 29.92 in1013.2 mb 0.00 in0.0 mm 0.00 in0.0 mm 0.00 in0.0 mm
08:57 PM 50.5°F10.3°C 25.2°F-3.8°C 37% Calm Calm 0.9 mph1.4 kmh 29.93 in1013.5 mb 0.00 in0.0 mm 0.00 in0.0 mm 0.00 in0.0 mm
09:07 PM 50.2°F10.1°C 23.5°F-4.7°C 35% 2.0 mph NE3.2 kmh NE 4.0 mph6.4 kmh 29.93 in1013.5 mb 0.00 in0.0 mm 0.00 in0.0 mm 0.00 in0.0 mm
09:17 PM 49.8°F9.9°C 23.2°F-4.9°C 35% 2.0 mph SE3.2 kmh SE 6.0 mph9.7 kmh 29.93 in1013.5 mb 0.00 in0.0 mm 0.00 in0.0 mm 0.00 in0.0 mm
09:27 PM 48.6°F9.2°C 24.8°F-4.0°C 39% 0.9 mph ESE1.4 kmh ESE 6.0 mph9.7 kmh 29.93 in1013.5 mb 0.00 in0.0 mm 0.00 in0.0 mm 0.00 in0.0 mm
09:37 PM 47.8°F8.8°C 24.1°F-4.4°C 39% Calm Calm 2.0 mph3.2 kmh 29.93 in1013.5 mb 0.00 in0.0 mm 0.00 in0.0 mm 0.00 in0.0 mm
09:47 PM 47.8°F8.8°C 20.8°F-6.2°C 34% 0.9 mph E1.4 kmh E 2.9 mph4.7 kmh 29.93 in1013.5 mb 0.00 in0.0 mm 0.00 in0.0 mm 0.00 in0.0 mm
09:57 PM 47.7°F8.7°C 22.1°F-5.5°C 36% 2.9 mph NE4.7 kmh NE 4.9 mph7.9 kmh 29.94 in1013.9 mb 0.00 in0.0 mm 0.00 in0.0 mm 0.00 in0.0 mm
10:07 PM 47.7°F8.7°C 23.4°F-4.8°C 38% 2.9 mph ENE4.7 kmh ENE 6.0 mph9.7 kmh 29.94 in1013.9 mb 0.00 in0.0 mm 0.00 in0.0 mm 0.00 in0.0 mm
10:17 PM 47.1°F8.4°C 22.8°F-5.1°C 38% 2.0 mph E3.2 kmh E 4.0 mph6.4 kmh 29.94 in1013.9 mb 0.00 in0.0 mm 0.00 in0.0 mm 0.00 in0.0 mm
10:27 PM 46.9°F8.3°C 22.6°F-5.2°C 38% 0.9 mph ENE1.4 kmh ENE 3.0 mph4.8 kmh 29.95 in1014.2 mb 0.00 in0.0 mm 0.00 in0.0 mm 0.00 in0.0 mm
10:37 PM 46.4°F8.0°C 22.8°F-5.1°C 39% 2.0 mph ESE3.2 kmh ESE 4.0 mph6.4 kmh 29.95 in1014.2 mb 0.00 in0.0 mm 0.00 in0.0 mm 0.00 in0.0 mm
10:47 PM 46.0°F7.8°C 22.5°F-5.3°C 39% 2.0 mph E3.2 kmh E 4.9 mph7.9 kmh 29.94 in1013.9 mb 0.00 in0.0 mm 0.00 in0.0 mm 0.00 in0.0 mm
10:57 PM 46.2°F7.9°C 22.6°F-5.2°C 39% 2.0 mph NNE3.2 kmh NNE 6.0 mph9.7 kmh 29.95 in1014.2 mb 0.00 in0.0 mm 0.00 in0.0 mm 0.00 in0.0 mm
11:07 PM 46.0°F7.8°C 21.9°F-5.6°C 38% 2.0 mph ESE3.2 kmh ESE 6.0 mph9.7 kmh 29.94 in1013.9 mb 0.00 in0.0 mm 0.00 in0.0 mm 0.00 in0.0 mm
11:17 PM 45.1°F7.3°C 22.3°F-5.4°C 40% 0.9 mph E1.4 kmh E 2.9 mph4.7 kmh 29.94 in1013.9 mb 0.00 in0.0 mm 0.00 in0.0 mm 0.00 in0.0 mm
11:27 PM 45.1°F7.3°C 22.8°F-5.1°C 41% 2.0 mph E3.2 kmh E 4.0 mph6.4 kmh 29.94 in1013.9 mb 0.00 in0.0 mm 0.00 in0.0 mm 0.00 in0.0 mm
11:37 PM 45.3°F7.4°C 21.7°F-5.7°C 39% 2.0 mph NE3.2 kmh NE 6.0 mph9.7 kmh 29.95 in1014.2 mb 0.00 in0.0 mm 0.00 in0.0 mm 0.00 in0.0 mm
11:47 PM 45.7°F7.6°C 22.1°F-5.5°C 39% 2.9 mph ENE4.7 kmh ENE 6.0 mph9.7 kmh 29.95 in1014.2 mb 0.00 in0.0 mm 0.00 in0.0 mm 0.00 in0.0 mm
11:57 PM 45.5°F7.5°C 22.6°F-5.2°C 40% 2.9 mph ESE4.7 kmh ESE 4.9 mph7.9 kmh 29.94 in1013.9 mb 0.00 in0.0 mm 0.00 in0.0 mm 0.00 in0.0 mm